sensor_id;sensor_type;location;lat;lon;timestamp;temperature;humidity
796;DHT22;381;48.770;9.188;2023-12-22T00:02:46;8.40;99.90
796;DHT22;381;48.770;9.188;2023-12-22T00:07:48;8.30;99.90
796;DHT22;381;48.770;9.188;2023-12-22T00:12:52;8.30;99.90
796;DHT22;381;48.770;9.188;2023-12-22T00:17:54;8.30;99.90
796;DHT22;381;48.770;9.188;2023-12-22T00:22:57;8.30;99.90
796;DHT22;381;48.770;9.188;2023-12-22T00:28:00;8.30;99.90
796;DHT22;381;48.770;9.188;2023-12-22T00:33:03;8.40;99.90
796;DHT22;381;48.770;9.188;2023-12-22T00:38:06;8.50;99.90
796;DHT22;381;48.770;9.188;2023-12-22T00:43:09;8.50;99.90
796;DHT22;381;48.770;9.188;2023-12-22T00:48:12;8.50;99.90
796;DHT22;381;48.770;9.188;2023-12-22T00:53:14;8.60;99.90
796;DHT22;381;48.770;9.188;2023-12-22T00:58:18;8.50;99.90
796;DHT22;381;48.770;9.188;2023-12-22T01:03:20;8.40;99.90
796;DHT22;381;48.770;9.188;2023-12-22T01:08:22;8.40;99.90
796;DHT22;381;48.770;9.188;2023-12-22T01:13:26;8.40;99.90
796;DHT22;381;48.770;9.188;2023-12-22T01:18:28;8.40;99.90
796;DHT22;381;48.770;9.188;2023-12-22T01:23:32;8.30;99.90
796;DHT22;381;48.770;9.188;2023-12-22T01:28:36;8.30;99.90
796;DHT22;381;48.770;9.188;2023-12-22T01:33:38;8.30;99.90
796;DHT22;381;48.770;9.188;2023-12-22T01:38:40;8.30;99.90
796;DHT22;381;48.770;9.188;2023-12-22T01:43:44;8.20;99.90
796;DHT22;381;48.770;9.188;2023-12-22T01:48:47;8.10;99.90
796;DHT22;381;48.770;9.188;2023-12-22T01:53:49;8.10;99.90
796;DHT22;381;48.770;9.188;2023-12-22T01:58:58;8.10;99.90
796;DHT22;381;48.770;9.188;2023-12-22T02:04:02;8.10;99.90
796;DHT22;381;48.770;9.188;2023-12-22T02:09:05;8.10;99.90
796;DHT22;381;48.770;9.188;2023-12-22T02:14:09;8.20;99.90
796;DHT22;381;48.770;9.188;2023-12-22T02:24:36;8.20;99.90
796;DHT22;381;48.770;9.188;2023-12-22T02:29:49;8.20;99.90
796;DHT22;381;48.770;9.188;2023-12-22T02:34:55;8.20;99.90
796;DHT22;381;48.770;9.188;2023-12-22T02:40:00;8.20;99.90
796;DHT22;381;48.770;9.188;2023-12-22T02:45:03;8.30;99.90
796;DHT22;381;48.770;9.188;2023-12-22T02:50:07;8.40;99.90
796;DHT22;381;48.770;9.188;2023-12-22T02:55:11;8.40;99.90
796;DHT22;381;48.770;9.188;2023-12-22T03:00:14;8.40;99.90
796;DHT22;381;48.770;9.188;2023-12-22T03:05:16;8.50;99.90
796;DHT22;381;48.770;9.188;2023-12-22T03:10:20;8.60;99.90
796;DHT22;381;48.770;9.188;2023-12-22T03:15:22;8.60;99.90
796;DHT22;381;48.770;9.188;2023-12-22T03:20:24;8.60;99.90
796;DHT22;381;48.770;9.188;2023-12-22T03:25:28;8.60;99.90
796;DHT22;381;48.770;9.188;2023-12-22T03:30:30;8.70;99.90
796;DHT22;381;48.770;9.188;2023-12-22T03:35:33;8.80;99.90
796;DHT22;381;48.770;9.188;2023-12-22T03:40:36;8.80;99.90
796;DHT22;381;48.770;9.188;2023-12-22T03:45:39;8.80;99.90
796;DHT22;381;48.770;9.188;2023-12-22T03:50:41;8.80;99.90
796;DHT22;381;48.770;9.188;2023-12-22T03:55:46;8.80;99.90
796;DHT22;381;48.770;9.188;2023-12-22T04:00:48;8.90;99.90
796;DHT22;381;48.770;9.188;2023-12-22T04:05:50;8.90;99.90
796;DHT22;381;48.770;9.188;2023-12-22T04:10:54;8.80;99.90
796;DHT22;381;48.770;9.188;2023-12-22T04:15:57;8.60;99.90
796;DHT22;381;48.770;9.188;2023-12-22T04:20:59;8.50;99.90
796;DHT22;381;48.770;9.188;2023-12-22T04:26:03;8.50;99.90
796;DHT22;381;48.770;9.188;2023-12-22T04:31:05;8.30;99.90
796;DHT22;381;48.770;9.188;2023-12-22T04:36:08;8.30;99.90
796;DHT22;381;48.770;9.188;2023-12-22T04:41:12;8.20;99.90
796;DHT22;381;48.770;9.188;2023-12-22T04:46:14;8.10;99.90
796;DHT22;381;48.770;9.188;2023-12-22T04:51:17;8.10;99.90
796;DHT22;381;48.770;9.188;2023-12-22T04:56:20;8.10;99.90
796;DHT22;381;48.770;9.188;2023-12-22T05:01:23;8.20;99.90
796;DHT22;381;48.770;9.188;2023-12-22T05:06:25;8.20;99.90
796;DHT22;381;48.770;9.188;2023-12-22T05:11:29;8.30;99.90
796;DHT22;381;48.770;9.188;2023-12-22T05:21:36;8.50;99.90
796;DHT22;381;48.770;9.188;2023-12-22T05:26:39;8.50;99.90
796;DHT22;381;48.770;9.188;2023-12-22T05:31:42;8.60;99.90
796;DHT22;381;48.770;9.188;2023-12-22T05:36:44;8.60;99.90
796;DHT22;381;48.770;9.188;2023-12-22T05:41:48;8.80;99.90
796;DHT22;381;48.770;9.188;2023-12-22T05:46:50;8.70;99.90
796;DHT22;381;48.770;9.188;2023-12-22T05:51:52;8.70;99.90
796;DHT22;381;48.770;9.188;2023-12-22T05:56:56;8.60;99.90
796;DHT22;381;48.770;9.188;2023-12-22T06:01:58;8.70;99.90
796;DHT22;381;48.770;9.188;2023-12-22T06:07:01;8.70;99.90
796;DHT22;381;48.770;9.188;2023-12-22T06:12:05;8.80;99.90
796;DHT22;381;48.770;9.188;2023-12-22T06:17:07;8.80;99.90
796;DHT22;381;48.770;9.188;2023-12-22T06:22:10;8.90;99.90
796;DHT22;381;48.770;9.188;2023-12-22T06:27:13;8.90;99.90
796;DHT22;381;48.770;9.188;2023-12-22T06:32:16;8.90;99.90
796;DHT22;381;48.770;9.188;2023-12-22T06:37:18;9.00;99.90
796;DHT22;381;48.770;9.188;2023-12-22T06:42:22;9.00;99.90
796;DHT22;381;48.770;9.188;2023-12-22T06:47:24;9.00;99.90
796;DHT22;381;48.770;9.188;2023-12-22T06:52:28;9.00;99.90
796;DHT22;381;48.770;9.188;2023-12-22T06:57:32;9.00;99.90
796;DHT22;381;48.770;9.188;2023-12-22T07:02:35;9.10;99.90
796;DHT22;381;48.770;9.188;2023-12-22T07:07:37;9.10;99.90
796;DHT22;381;48.770;9.188;2023-12-22T07:12:41;9.10;99.90
796;DHT22;381;48.770;9.188;2023-12-22T07:17:43;9.10;99.90
796;DHT22;381;48.770;9.188;2023-12-22T07:22:45;9.10;99.90
796;DHT22;381;48.770;9.188;2023-12-22T07:27:49;9.10;99.90
796;DHT22;381;48.770;9.188;2023-12-22T07:32:52;9.10;99.90
796;DHT22;381;48.770;9.188;2023-12-22T07:37:55;9.10;99.90
796;DHT22;381;48.770;9.188;2023-12-22T07:42:58;9.10;99.90
796;DHT22;381;48.770;9.188;2023-12-22T07:48:01;9.10;99.90
796;DHT22;381;48.770;9.188;2023-12-22T07:53:03;9.10;99.90
796;DHT22;381;48.770;9.188;2023-12-22T07:58:07;9.20;99.90
796;DHT22;381;48.770;9.188;2023-12-22T08:03:10;9.20;99.90
796;DHT22;381;48.770;9.188;2023-12-22T08:08:12;9.10;99.90
796;DHT22;381;48.770;9.188;2023-12-22T08:13:19;9.10;99.90
796;DHT22;381;48.770;9.188;2023-12-22T08:18:21;9.00;99.90
796;DHT22;381;48.770;9.188;2023-12-22T08:23:23;8.90;99.90
796;DHT22;381;48.770;9.188;2023-12-22T08:28:27;8.80;99.90
796;DHT22;381;48.770;9.188;2023-12-22T08:33:29;8.70;99.90
796;DHT22;381;48.770;9.188;2023-12-22T08:38:32;8.60;99.90
796;DHT22;381;48.770;9.188;2023-12-22T08:43:36;8.50;99.90
796;DHT22;381;48.770;9.188;2023-12-22T08:48:39;8.50;99.90
796;DHT22;381;48.770;9.188;2023-12-22T08:53:41;8.40;99.90
796;DHT22;381;48.770;9.188;2023-12-22T08:58:45;8.40;99.90
796;DHT22;381;48.770;9.188;2023-12-22T09:03:48;8.40;99.90
796;DHT22;381;48.770;9.188;2023-12-22T09:08:50;8.40;99.90
796;DHT22;381;48.770;9.188;2023-12-22T09:13:55;8.40;99.90
796;DHT22;381;48.770;9.188;2023-12-22T09:18:57;8.40;99.90
796;DHT22;381;48.770;9.188;2023-12-22T09:24:00;8.40;99.90
796;DHT22;381;48.770;9.188;2023-12-22T09:29:03;8.50;99.90
796;DHT22;381;48.770;9.188;2023-12-22T09:34:06;8.50;99.90
796;DHT22;381;48.770;9.188;2023-12-22T09:39:08;8.60;99.90
796;DHT22;381;48.770;9.188;2023-12-22T09:44:13;8.60;99.90
796;DHT22;381;48.770;9.188;2023-12-22T09:49:16;8.70;99.90
796;DHT22;381;48.770;9.188;2023-12-22T09:54:19;8.90;99.90
796;DHT22;381;48.770;9.188;2023-12-22T09:59:23;8.90;99.90
796;DHT22;381;48.770;9.188;2023-12-22T10:04:27;9.00;99.90
796;DHT22;381;48.770;9.188;2023-12-22T10:09:29;9.10;99.90
796;DHT22;381;48.770;9.188;2023-12-22T10:14:33;9.30;99.90
796;DHT22;381;48.770;9.188;2023-12-22T10:19:37;9.30;99.90
796;DHT22;381;48.770;9.188;2023-12-22T10:24:41;9.40;99.90
796;DHT22;381;48.770;9.188;2023-12-22T10:29:45;9.40;99.90
796;DHT22;381;48.770;9.188;2023-12-22T10:34:51;9.50;99.90
796;DHT22;381;48.770;9.188;2023-12-22T10:39:54;9.60;99.90
796;DHT22;381;48.770;9.188;2023-12-22T10:44:58;9.60;99.90
796;DHT22;381;48.770;9.188;2023-12-22T10:50:02;9.60;99.90
796;DHT22;381;48.770;9.188;2023-12-22T10:55:05;9.70;99.90
796;DHT22;381;48.770;9.188;2023-12-22T11:00:13;9.70;99.90
796;DHT22;381;48.770;9.188;2023-12-22T11:05:18;9.70;99.90
796;DHT22;381;48.770;9.188;2023-12-22T11:10:23;9.70;99.90
796;DHT22;381;48.770;9.188;2023-12-22T11:15:27;9.70;99.90
796;DHT22;381;48.770;9.188;2023-12-22T11:20:31;9.60;99.90
796;DHT22;381;48.770;9.188;2023-12-22T11:25:35;9.60;99.90
796;DHT22;381;48.770;9.188;2023-12-22T11:30:39;9.60;99.90
796;DHT22;381;48.770;9.188;2023-12-22T11:35:42;9.50;99.90
796;DHT22;381;48.770;9.188;2023-12-22T11:40:46;9.40;99.90
796;DHT22;381;48.770;9.188;2023-12-22T11:45:50;9.30;99.90
796;DHT22;381;48.770;9.188;2023-12-22T11:50:53;9.20;99.90
796;DHT22;381;48.770;9.188;2023-12-22T11:55:57;9.20;99.90
796;DHT22;381;48.770;9.188;2023-12-22T12:01:01;9.10;99.90
796;DHT22;381;48.770;9.188;2023-12-22T12:06:30;9.00;99.90
796;DHT22;381;48.770;9.188;2023-12-22T12:12:11;8.90;99.90
796;DHT22;381;48.770;9.188;2023-12-22T12:17:16;8.90;99.90
796;DHT22;381;48.770;9.188;2023-12-22T12:22:21;8.90;99.90
796;DHT22;381;48.770;9.188;2023-12-22T12:27:25;8.90;99.90
796;DHT22;381;48.770;9.188;2023-12-22T12:32:30;8.90;99.90
796;DHT22;381;48.770;9.188;2023-12-22T12:37:32;8.90;99.90
796;DHT22;381;48.770;9.188;2023-12-22T12:42:36;8.90;99.90
796;DHT22;381;48.770;9.188;2023-12-22T12:47:41;8.90;99.90
796;DHT22;381;48.770;9.188;2023-12-22T12:52:43;8.90;99.90
796;DHT22;381;48.770;9.188;2023-12-22T12:57:48;8.90;99.90
796;DHT22;381;48.770;9.188;2023-12-22T13:02:53;8.90;99.90
796;DHT22;381;48.770;9.188;2023-12-22T13:08:07;8.90;99.90
796;DHT22;381;48.770;9.188;2023-12-22T13:13:09;8.90;99.90
796;DHT22;381;48.770;9.188;2023-12-22T13:18:13;8.90;99.90
796;DHT22;381;48.770;9.188;2023-12-22T13:23:17;8.90;99.90
796;DHT22;381;48.770;9.188;2023-12-22T13:28:25;8.90;99.90
796;DHT22;381;48.770;9.188;2023-12-22T13:33:33;9.00;99.90
796;DHT22;381;48.770;9.188;2023-12-22T13:38:36;9.10;99.90
796;DHT22;381;48.770;9.188;2023-12-22T13:43:38;9.20;99.90
796;DHT22;381;48.770;9.188;2023-12-22T13:48:42;9.30;99.90
796;DHT22;381;48.770;9.188;2023-12-22T13:53:48;9.40;99.90
796;DHT22;381;48.770;9.188;2023-12-22T13:58:50;9.70;99.90
796;DHT22;381;48.770;9.188;2023-12-22T14:03:54;9.70;99.90
796;DHT22;381;48.770;9.188;2023-12-22T14:08:58;9.80;99.90
796;DHT22;381;48.770;9.188;2023-12-22T14:14:01;9.90;99.90
796;DHT22;381;48.770;9.188;2023-12-22T14:19:04;9.90;99.90
796;DHT22;381;48.770;9.188;2023-12-22T14:24:07;10.10;99.90
796;DHT22;381;48.770;9.188;2023-12-22T14:29:09;10.20;99.90
796;DHT22;381;48.770;9.188;2023-12-22T14:34:14;10.20;99.90
796;DHT22;381;48.770;9.188;2023-12-22T14:39:16;10.30;99.90
796;DHT22;381;48.770;9.188;2023-12-22T14:44:18;10.30;99.90
796;DHT22;381;48.770;9.188;2023-12-22T14:49:22;10.40;99.90
796;DHT22;381;48.770;9.188;2023-12-22T14:54:25;10.30;99.90
796;DHT22;381;48.770;9.188;2023-12-22T14:59:27;10.40;99.90
796;DHT22;381;48.770;9.188;2023-12-22T15:04:32;10.40;99.90
796;DHT22;381;48.770;9.188;2023-12-22T15:09:39;10.40;99.90
796;DHT22;381;48.770;9.188;2023-12-22T15:14:43;10.40;99.90
796;DHT22;381;48.770;9.188;2023-12-22T15:19:47;10.50;99.90
796;DHT22;381;48.770;9.188;2023-12-22T15:24:49;10.40;99.90
796;DHT22;381;48.770;9.188;2023-12-22T15:29:52;10.50;99.90
796;DHT22;381;48.770;9.188;2023-12-22T15:34:56;10.50;99.90
796;DHT22;381;48.770;9.188;2023-12-22T15:39:58;10.50;99.90
796;DHT22;381;48.770;9.188;2023-12-22T15:45:01;10.50;99.90
796;DHT22;381;48.770;9.188;2023-12-22T15:50:07;10.60;99.90
796;DHT22;381;48.770;9.188;2023-12-22T15:55:10;10.50;99.90
796;DHT22;381;48.770;9.188;2023-12-22T16:00:14;10.50;99.90
796;DHT22;381;48.770;9.188;2023-12-22T16:05:17;10.60;99.90
796;DHT22;381;48.770;9.188;2023-12-22T16:10:20;10.60;99.90
796;DHT22;381;48.770;9.188;2023-12-22T16:15:22;10.60;99.90
796;DHT22;381;48.770;9.188;2023-12-22T16:20:26;10.60;99.90
796;DHT22;381;48.770;9.188;2023-12-22T16:25:29;10.60;99.90
796;DHT22;381;48.770;9.188;2023-12-22T16:30:32;10.60;99.90
796;DHT22;381;48.770;9.188;2023-12-22T16:35:35;10.70;99.90
796;DHT22;381;48.770;9.188;2023-12-22T16:40:38;10.60;99.90
796;DHT22;381;48.770;9.188;2023-12-22T16:45:41;10.60;99.90
796;DHT22;381;48.770;9.188;2023-12-22T16:50:45;10.60;99.90
796;DHT22;381;48.770;9.188;2023-12-22T16:55:48;10.70;99.90
796;DHT22;381;48.770;9.188;2023-12-22T17:00:50;10.60;99.90
796;DHT22;381;48.770;9.188;2023-12-22T17:05:54;10.70;99.90
796;DHT22;381;48.770;9.188;2023-12-22T17:10:56;10.60;99.90
796;DHT22;381;48.770;9.188;2023-12-22T17:15:59;10.60;99.90
796;DHT22;381;48.770;9.188;2023-12-22T17:21:03;10.70;99.90
796;DHT22;381;48.770;9.188;2023-12-22T17:26:05;10.70;99.90
796;DHT22;381;48.770;9.188;2023-12-22T17:31:11;10.70;99.90
796;DHT22;381;48.770;9.188;2023-12-22T17:36:14;10.70;99.90
796;DHT22;381;48.770;9.188;2023-12-22T17:41:17;10.70;99.90
796;DHT22;381;48.770;9.188;2023-12-22T17:46:19;10.70;99.90
796;DHT22;381;48.770;9.188;2023-12-22T17:51:23;10.60;99.90
796;DHT22;381;48.770;9.188;2023-12-22T17:56:25;10.60;99.90
796;DHT22;381;48.770;9.188;2023-12-22T18:01:28;10.80;99.90
796;DHT22;381;48.770;9.188;2023-12-22T18:06:32;10.70;99.90
796;DHT22;381;48.770;9.188;2023-12-22T18:11:39;10.70;99.90
796;DHT22;381;48.770;9.188;2023-12-22T18:16:42;10.70;99.90
796;DHT22;381;48.770;9.188;2023-12-22T18:21:46;10.70;99.90
796;DHT22;381;48.770;9.188;2023-12-22T18:26:49;10.70;99.90
796;DHT22;381;48.770;9.188;2023-12-22T18:31:52;10.70;99.90
796;DHT22;381;48.770;9.188;2023-12-22T18:36:57;10.70;99.90
796;DHT22;381;48.770;9.188;2023-12-22T18:42:00;10.70;99.90
796;DHT22;381;48.770;9.188;2023-12-22T18:47:02;10.70;99.90
796;DHT22;381;48.770;9.188;2023-12-22T18:52:06;10.70;99.90
796;DHT22;381;48.770;9.188;2023-12-22T18:57:08;10.70;99.90
796;DHT22;381;48.770;9.188;2023-12-22T19:02:10;10.70;99.90
796;DHT22;381;48.770;9.188;2023-12-22T19:07:14;10.70;99.90
796;DHT22;381;48.770;9.188;2023-12-22T19:12:17;10.70;99.90
796;DHT22;381;48.770;9.188;2023-12-22T19:17:19;10.70;99.90
796;DHT22;381;48.770;9.188;2023-12-22T19:22:23;10.70;99.90
796;DHT22;381;48.770;9.188;2023-12-22T19:27:25;10.70;99.90
796;DHT22;381;48.770;9.188;2023-12-22T19:32:27;10.70;99.90
796;DHT22;381;48.770;9.188;2023-12-22T19:37:31;10.60;99.90
796;DHT22;381;48.770;9.188;2023-12-22T19:42:35;10.60;99.90
796;DHT22;381;48.770;9.188;2023-12-22T19:47:37;10.60;99.90
796;DHT22;381;48.770;9.188;2023-12-22T19:52:41;10.60;99.90
796;DHT22;381;48.770;9.188;2023-12-22T19:57:43;10.60;99.90
796;DHT22;381;48.770;9.188;2023-12-22T20:02:45;10.50;99.90
796;DHT22;381;48.770;9.188;2023-12-22T20:07:49;10.50;99.90
796;DHT22;381;48.770;9.188;2023-12-22T20:12:51;10.50;99.90
796;DHT22;381;48.770;9.188;2023-12-22T20:17:54;10.50;99.90
796;DHT22;381;48.770;9.188;2023-12-22T20:22:57;10.50;99.90
796;DHT22;381;48.770;9.188;2023-12-22T20:28:00;10.40;99.90
796;DHT22;381;48.770;9.188;2023-12-22T20:33:02;10.40;99.90
796;DHT22;381;48.770;9.188;2023-12-22T20:38:06;10.50;99.90
796;DHT22;381;48.770;9.188;2023-12-22T20:43:08;10.50;99.90
796;DHT22;381;48.770;9.188;2023-12-22T20:48:11;10.60;99.90
796;DHT22;381;48.770;9.188;2023-12-22T20:53:14;10.50;99.90
796;DHT22;381;48.770;9.188;2023-12-22T20:58:17;10.50;99.90
796;DHT22;381;48.770;9.188;2023-12-22T21:03:19;10.50;99.90
796;DHT22;381;48.770;9.188;2023-12-22T21:08:23;10.50;99.90
796;DHT22;381;48.770;9.188;2023-12-22T21:13:26;10.50;99.90
796;DHT22;381;48.770;9.188;2023-12-22T21:18:30;10.40;99.90
796;DHT22;381;48.770;9.188;2023-12-22T21:23:34;10.50;99.90
796;DHT22;381;48.770;9.188;2023-12-22T21:28:36;10.40;99.90
796;DHT22;381;48.770;9.188;2023-12-22T21:33:39;10.40;99.90
796;DHT22;381;48.770;9.188;2023-12-22T21:38:43;10.40;99.90
796;DHT22;381;48.770;9.188;2023-12-22T21:43:45;10.40;99.90
796;DHT22;381;48.770;9.188;2023-12-22T21:48:48;10.40;99.90
796;DHT22;381;48.770;9.188;2023-12-22T21:53:52;10.50;99.90
796;DHT22;381;48.770;9.188;2023-12-22T21:58:54;10.50;99.90
796;DHT22;381;48.770;9.188;2023-12-22T22:03:56;10.50;99.90
796;DHT22;381;48.770;9.188;2023-12-22T22:09:00;10.50;99.90
796;DHT22;381;48.770;9.188;2023-12-22T22:14:03;10.50;99.90
796;DHT22;381;48.770;9.188;2023-12-22T22:19:06;10.40;99.90
796;DHT22;381;48.770;9.188;2023-12-22T22:24:09;10.50;99.90
796;DHT22;381;48.770;9.188;2023-12-22T22:29:12;10.50;99.90
796;DHT22;381;48.770;9.188;2023-12-22T22:34:16;10.40;99.90
796;DHT22;381;48.770;9.188;2023-12-22T22:39:19;10.40;99.90
796;DHT22;381;48.770;9.188;2023-12-22T22:44:22;10.40;99.90
796;DHT22;381;48.770;9.188;2023-12-22T22:49:25;10.40;99.90
796;DHT22;381;48.770;9.188;2023-12-22T22:54:29;10.50;99.90
796;DHT22;381;48.770;9.188;2023-12-22T22:59:31;10.50;99.90
796;DHT22;381;48.770;9.188;2023-12-22T23:04:33;10.50;99.90
796;DHT22;381;48.770;9.188;2023-12-22T23:09:41;10.40;99.90
796;DHT22;381;48.770;9.188;2023-12-22T23:14:43;10.40;99.90
796;DHT22;381;48.770;9.188;2023-12-22T23:19:46;10.40;99.90
796;DHT22;381;48.770;9.188;2023-12-22T23:24:52;10.40;99.90
796;DHT22;381;48.770;9.188;2023-12-22T23:29:54;10.40;99.90
796;DHT22;381;48.770;9.188;2023-12-22T23:34:57;10.40;99.90
796;DHT22;381;48.770;9.188;2023-12-22T23:40:01;10.30;99.90
796;DHT22;381;48.770;9.188;2023-12-22T23:45:05;10.30;99.90
796;DHT22;381;48.770;9.188;2023-12-22T23:50:08;10.40;99.90
796;DHT22;381;48.770;9.188;2023-12-22T23:55:12;10.40;99.90
